KMCO/MCO METAR and TAF weather

Enter ICAO airport designator
Station Type Date Time Source
KMCO METAR 2019/12/08 10:53 UTC NOAA

KMCO 081053Z 01004KT 10SM FEW035 SCT110 16/14 A3016 RMK AO2 SLP213 T01560139


Station Type Date Time Source
KMCO Decoded METAR 2019/12/08 10:53 UTC NOAA

ORLANDO INTERNATIONAL AIRPORT , FL, United States (KMCO) 28-25N 81-20W 29M
Dec 08, 2019 - 05:53 AM EST / 2019.12.08 1053 UTC
Wind: from the N (010 degrees) at 5 MPH (4 KT):0
Visibility: 10 mile(s):0
Sky conditions: partly cloudy
Temperature: 60.1 F (15.6 C)
Dew Point: 57.0 F (13.9 C)
Relative Humidity: 89%
Pressure (altimeter): 30.16 in. Hg (1021 hPa)
ob: KMCO 081053Z 01004KT 10SM FEW035 SCT110 16/14 A3016 RMK AO2 SLP213 T01560139
cycle: 11

Station Type Date Time Source
KMCO TAF 2019/12/08 12:36 UTC NOAA

TAF KMCO 081135Z 0812/0918 01006KT P6SM FEW030 SCT100
FM081400 06007KT P6SM SCT035 SCT090
FM081700 09008KT P6SM BKN045
FM090000 VRB04KT P6SM FEW040 FEW090
FM091500 16008KT P6SM SCT030 SCT100

Example: see airport list